Weather at Ste-Julienne Airport [CLOSED]

Public forecast

Using degrees Celsius for public forecast. Weather courtesy of forecast.io.

Closest aviation weather report (METAR) to Ste-Julienne Airport

Closest report is Montreal International (Mirabel) Airport, 20.5 nm (37.9 km) SW.

2024/05/21 14:00 (retrieved 33 minutes ago)

CYMX 211400Z 26006KT 210V290 30SM FEW060 FEW110 OVC250 21/15 A2989 RMK SC1AC1CI7 SC TR SLP123 DENSITY ALT 1100FT

Closest aviation forecast (TAF) to Ste-Julienne Airport

Closest forecast is Montreal International (Mirabel) Airport, 20.5 nm (37.9 km) SW.

2024/05/21 12:45 (retrieved 2 hours ago)

TAF CYMX 211141Z 2112/2212 VRB03KT P6SM BKN230 FM211500 25012G22KT P6SM BKN150 FM211800 23010KT P6SM -SHRA BKN070 PROB30 2119/2206 VRB20G30KT 2SM TSRA BR BKN020 OVC040CB FM220600 23007KT P6SM BKN050 RMK NXT FCST BY 211800Z